Time,TemperatureF,DewpointF,PressureIn,WindDirection,WindDirectionDegrees,WindSpeedMPH,WindSpeedGustMPH,Humidity,HourlyPrecipIn,Conditions,Clouds,dailyrainin,SoftwareType,DateUTC
2013-10-27 00:12:00,48.4,47.9,29.81,SW,225,0.0,-999.0,98,-99.99,,,0.00,Acu-Link.com,2013-10-27 05:12:00,
2013-10-27 00:28:00,48.6,48.1,29.81,South,180,0.0,-999.0,98,-99.99,,,0.00,Acu-Link.com,2013-10-27 05:28:00,
2013-10-27 00:43:00,48.2,47.7,29.81,NE,45,0.0,-999.0,98,-99.99,,,0.00,Acu-Link.com,2013-10-27 05:43:00,
2013-10-27 00:58:00,48.4,47.9,29.81,SW,225,0.0,-999.0,98,-99.99,,,0.00,Acu-Link.com,2013-10-27 05:58:00,
2013-10-27 01:13:00,48.2,47.7,29.80,SE,135,0.0,-999.0,98,-99.99,,,0.00,Acu-Link.com,2013-10-27 06:13:00,
2013-10-27 01:29:00,47.8,47.3,29.81,SE,135,0.0,-999.0,98,-99.99,,,0.00,Acu-Link.com,2013-10-27 06:29:00,
2013-10-27 01:44:00,47.7,47.2,29.80,NE,45,0.0,-999.0,98,-99.99,,,0.00,Acu-Link.com,2013-10-27 06:44:00,
2013-10-27 01:59:00,47.3,46.8,29.80,SSE,157,0.0,-999.0,98,-99.99,,,0.00,Acu-Link.com,2013-10-27 06:59:00,
2013-10-27 02:14:00,47.3,46.8,29.80,SSE,157,0.0,-999.0,98,-99.99,,,0.00,Acu-Link.com,2013-10-27 07:14:00,
2013-10-27 02:30:00,47.3,46.8,29.79,North,0,0.0,-999.0,98,-99.99,,,0.00,Acu-Link.com,2013-10-27 07:30:00,
2013-10-27 02:45:00,47.1,46.6,29.80,ENE,67,0.0,-999.0,98,-99.99,,,0.00,Acu-Link.com,2013-10-27 07:45:00,
2013-10-27 03:00:00,46.8,46.3,29.79,NE,45,0.0,-999.0,98,-99.99,,,0.00,Acu-Link.com,2013-10-27 08:00:00,
2013-10-27 03:16:00,46.8,46.3,29.79,NNE,22,0.0,-999.0,98,-99.99,,,0.00,Acu-Link.com,2013-10-27 08:16:00,
2013-10-27 03:31:00,46.8,46.3,29.79,South,180,0.0,-999.0,98,-99.99,,,0.00,Acu-Link.com,2013-10-27 08:31:00,
2013-10-27 03:46:00,46.8,46.3,29.79,SW,225,0.0,-999.0,98,-99.99,,,0.00,Acu-Link.com,2013-10-27 08:46:00,
2013-10-27 04:01:00,46.4,45.9,29.78,NNE,22,0.0,-999.0,98,-99.99,,,0.00,Acu-Link.com,2013-10-27 09:01:00,
2013-10-27 04:17:00,46.2,45.7,29.78,NE,45,0.0,-999.0,98,-99.99,,,0.00,Acu-Link.com,2013-10-27 09:17:00,
2013-10-27 04:32:00,46.0,45.5,29.79,NE,45,0.0,-999.0,98,-99.99,,,0.00,Acu-Link.com,2013-10-27 09:32:00,
2013-10-27 04:47:00,45.7,45.2,29.79,NNE,22,0.0,-999.0,98,-99.99,,,0.00,Acu-Link.com,2013-10-27 09:47:00,
2013-10-27 05:02:00,45.7,45.2,29.78,East,90,0.0,-999.0,98,-99.99,,,0.00,Acu-Link.com,2013-10-27 10:02:00,
2013-10-27 05:17:00,44.6,44.1,29.78,WNW,292,0.0,-999.0,98,-99.99,,,0.00,Acu-Link.com,2013-10-27 10:17:00,
2013-10-27 05:32:00,44.8,44.3,29.79,West,270,0.0,-999.0,98,-99.99,,,0.00,Acu-Link.com,2013-10-27 10:32:00,
2013-10-27 05:48:00,44.6,44.1,29.79,NNE,22,0.0,-999.0,98,-99.99,,,0.00,Acu-Link.com,2013-10-27 10:48:00,
2013-10-27 06:03:00,44.8,44.3,29.79,NNE,22,0.0,-999.0,98,-99.99,,,0.00,Acu-Link.com,2013-10-27 11:03:00,
2013-10-27 06:18:00,44.8,44.3,29.79,NE,45,0.0,-999.0,98,-99.99,,,0.00,Acu-Link.com,2013-10-27 11:18:00,
2013-10-27 06:33:00,45.5,45.0,29.80,NNW,337,0.0,-999.0,98,-99.99,,,0.00,Acu-Link.com,2013-10-27 11:33:00,
2013-10-27 06:48:00,46.4,45.9,29.80,East,90,0.0,-999.0,98,-99.99,,,0.00,Acu-Link.com,2013-10-27 11:48:00,
2013-10-27 07:03:00,46.8,46.3,29.81,East,90,0.0,-999.0,98,-99.99,,,0.00,Acu-Link.com,2013-10-27 12:03:00,
2013-10-27 07:19:00,47.7,47.2,29.81,SE,135,0.0,-999.0,98,-99.99,,,0.00,Acu-Link.com,2013-10-27 12:19:00,
2013-10-27 07:34:00,48.7,48.2,29.81,SE,135,0.0,-999.0,98,-99.99,,,0.00,Acu-Link.com,2013-10-27 12:34:00,
2013-10-27 07:49:00,49.8,49.3,29.80,SE,135,0.0,-999.0,98,-99.99,,,0.00,Acu-Link.com,2013-10-27 12:49:00,
2013-10-27 08:04:00,52.0,51.5,29.80,South,180,0.0,-999.0,98,-99.99,,,0.00,Acu-Link.com,2013-10-27 13:04:00,
2013-10-27 08:19:00,53.6,53.0,29.80,SSW,202,0.0,-999.0,98,-99.99,,,0.00,Acu-Link.com,2013-10-27 13:19:00,
2013-10-27 08:34:00,54.9,54.3,29.83,SE,135,1.1,-999.0,98,-99.99,,,0.00,Acu-Link.com,2013-10-27 13:34:00,
2013-10-27 08:49:00,56.5,55.9,29.83,SSW,202,1.1,-999.0,98,-99.99,,,0.00,Acu-Link.com,2013-10-27 13:49:00,
2013-10-27 09:04:00,57.4,56.8,29.83,ESE,112,2.2,-999.0,98,-99.99,,,0.00,Acu-Link.com,2013-10-27 14:04:00,
2013-10-27 09:20:00,58.3,57.7,29.84,ESE,112,0.0,-999.0,98,-99.99,,,0.00,Acu-Link.com,2013-10-27 14:20:00,
2013-10-27 09:35:00,60.6,60.0,29.83,SE,135,1.7,-999.0,98,-99.99,,,0.00,Acu-Link.com,2013-10-27 14:35:00,
2013-10-27 09:50:00,62.1,61.5,29.84,South,180,3.2,-999.0,98,-99.99,,,0.00,Acu-Link.com,2013-10-27 14:50:00,
2013-10-27 10:05:00,63.1,62.5,29.83,SSW,202,1.7,-999.0,98,-99.99,,,0.00,Acu-Link.com,2013-10-27 15:05:00,
2013-10-27 10:20:00,63.9,63.3,29.83,SSE,157,1.1,-999.0,98,-99.99,,,0.00,Acu-Link.com,2013-10-27 15:20:00,
2013-10-27 10:35:00,63.9,63.3,29.84,ESE,112,1.7,-999.0,98,-99.99,,,0.00,Acu-Link.com,2013-10-27 15:35:00,
2013-10-27 10:51:00,64.6,64.0,29.85,South,180,3.2,-999.0,98,-99.99,,,0.00,Acu-Link.com,2013-10-27 15:51:00,
2013-10-27 11:06:00,65.8,65.2,29.85,South,180,2.2,-999.0,98,-99.99,,,0.00,Acu-Link.com,2013-10-27 16:06:00,
2013-10-27 11:21:00,66.2,65.6,29.85,South,180,3.7,-999.0,98,-99.99,,,0.00,Acu-Link.com,2013-10-27 16:21:00,
2013-10-27 11:36:00,67.3,66.7,29.85,South,180,5.8,-999.0,98,-99.99,,,0.00,Acu-Link.com,2013-10-27 16:36:00,
2013-10-27 11:52:00,69.8,69.2,29.85,SW,225,4.7,-999.0,98,-99.99,,,0.00,Acu-Link.com,2013-10-27 16:52:00,
2013-10-27 12:07:00,72.3,71.7,29.84,ESE,112,3.7,-999.0,98,-99.99,,,0.00,Acu-Link.com,2013-10-27 17:07:00,
2013-10-27 12:22:00,70.9,70.3,29.83,South,180,2.7,-999.0,98,-99.99,,,0.00,Acu-Link.com,2013-10-27 17:22:00,
2013-10-27 12:37:00,68.7,68.1,29.82,SW,225,2.7,-999.0,98,-99.99,,,0.00,Acu-Link.com,2013-10-27 17:37:00,
2013-10-27 12:52:00,68.4,67.8,29.82,South,180,1.7,-999.0,98,-99.99,,,0.00,Acu-Link.com,2013-10-27 17:52:00,
2013-10-27 13:23:00,68.4,67.8,29.80,SE,135,1.7,-999.0,98,-99.99,,,0.00,Acu-Link.com,2013-10-27 18:23:00,
2013-10-27 13:38:00,67.6,67.0,29.80,SSE,157,1.7,-999.0,98,-99.99,,,0.00,Acu-Link.com,2013-10-27 18:38:00,
2013-10-27 13:53:00,67.6,67.0,29.79,SSE,157,1.7,-999.0,98,-99.99,,,0.00,Acu-Link.com,2013-10-27 18:53:00,
2013-10-27 14:08:00,67.8,67.2,29.78,WNW,292,2.2,-999.0,98,-99.99,,,0.00,Acu-Link.com,2013-10-27 19:08:00,
2013-10-27 14:24:00,68.0,67.4,29.77,SSE,157,0.0,-999.0,98,-99.99,,,0.00,Acu-Link.com,2013-10-27 19:24:00,
2013-10-27 14:39:00,69.3,68.7,29.77,SW,225,1.7,-999.0,98,-99.99,,,0.00,Acu-Link.com,2013-10-27 19:39:00,
2013-10-27 14:54:00,70.3,69.7,29.77,SE,135,2.7,-999.0,98,-99.99,,,0.00,Acu-Link.com,2013-10-27 19:54:00,
2013-10-27 15:09:00,70.5,69.9,29.77,SSE,157,3.7,-999.0,98,-99.99,,,0.00,Acu-Link.com,2013-10-27 20:09:00,
2013-10-27 15:24:00,70.9,70.3,29.77,SSE,157,3.2,-999.0,98,-99.99,,,0.00,Acu-Link.com,2013-10-27 20:24:00,
2013-10-27 15:39:00,70.3,69.7,29.77,South,180,0.0,-999.0,98,-99.99,,,0.00,Acu-Link.com,2013-10-27 20:39:00,
2013-10-27 15:54:00,70.2,69.6,29.77,ESE,112,2.7,-999.0,98,-99.99,,,0.00,Acu-Link.com,2013-10-27 20:54:00,
2013-10-27 16:09:00,70.3,69.7,29.77,SSE,157,2.7,-999.0,98,-99.99,,,0.00,Acu-Link.com,2013-10-27 21:09:00,
2013-10-27 16:24:00,70.5,69.9,29.77,SSE,157,2.7,-999.0,98,-99.99,,,0.00,Acu-Link.com,2013-10-27 21:24:00,
2013-10-27 16:40:00,70.0,69.4,29.78,SSW,202,2.7,-999.0,98,-99.99,,,0.00,Acu-Link.com,2013-10-27 21:40:00,
2013-10-27 16:55:00,69.6,69.0,29.78,SSE,157,0.0,-999.0,98,-99.99,,,0.00,Acu-Link.com,2013-10-27 21:55:00,
2013-10-27 17:10:00,69.3,68.7,29.77,West,270,0.0,-999.0,98,-99.99,,,0.00,Acu-Link.com,2013-10-27 22:10:00,
2013-10-27 17:25:00,68.5,67.9,29.77,SSE,157,2.7,-999.0,98,-99.99,,,0.00,Acu-Link.com,2013-10-27 22:25:00,
2013-10-27 17:40:00,67.5,66.9,29.77,South,180,1.1,-999.0,98,-99.99,,,0.00,Acu-Link.com,2013-10-27 22:40:00,
2013-10-27 17:55:00,66.2,65.6,29.76,SE,135,0.0,-999.0,98,-99.99,,,0.00,Acu-Link.com,2013-10-27 22:55:00,
2013-10-27 18:11:00,65.3,64.7,29.77,ENE,67,0.0,-999.0,98,-99.99,,,0.00,Acu-Link.com,2013-10-27 23:11:00,
2013-10-27 18:26:00,63.5,62.9,29.76,SSE,157,0.0,-999.0,98,-99.99,,,0.00,Acu-Link.com,2013-10-27 23:26:00,
2013-10-27 18:41:00,62.6,62.0,29.76,ESE,112,0.0,-999.0,98,-99.99,,,0.00,Acu-Link.com,2013-10-27 23:41:00,
2013-10-27 18:56:00,61.7,61.1,29.76,SSE,157,0.0,-999.0,98,-99.99,,,0.00,Acu-Link.com,2013-10-27 23:56:00,
2013-10-27 19:11:00,61.9,61.3,29.76,SSE,157,0.0,-999.0,98,-99.99,,,0.00,Acu-Link.com,2013-10-28 00:11:00,
2013-10-27 19:26:00,61.7,61.1,29.76,ESE,112,0.0,-999.0,98,-99.99,,,0.00,Acu-Link.com,2013-10-28 00:26:00,
2013-10-27 19:41:00,62.2,61.6,29.76,SSE,157,1.7,-999.0,98,-99.99,,,0.00,Acu-Link.com,2013-10-28 00:41:00,
2013-10-27 19:56:00,62.8,62.2,29.77,SSE,157,1.1,-999.0,98,-99.99,,,0.00,Acu-Link.com,2013-10-28 00:56:00,
2013-10-27 20:11:00,63.1,62.5,29.77,SSE,157,3.2,-999.0,98,-99.99,,,0.00,Acu-Link.com,2013-10-28 01:11:00,
2013-10-27 20:27:00,63.1,62.5,29.79,SE,135,2.2,-999.0,98,-99.99,,,0.00,Acu-Link.com,2013-10-28 01:27:00,
2013-10-27 20:42:00,62.8,62.2,29.79,SSW,202,2.7,-999.0,98,-99.99,,,0.00,Acu-Link.com,2013-10-28 01:42:00,
2013-10-27 20:57:00,61.9,61.3,29.79,SSE,157,0.0,-999.0,98,-99.99,,,0.00,Acu-Link.com,2013-10-28 01:57:00,
2013-10-27 21:12:00,61.5,60.9,29.81,NNE,22,3.2,-999.0,98,-99.99,,,0.00,Acu-Link.com,2013-10-28 02:12:00,
2013-10-27 21:27:00,61.2,60.6,29.82,SW,225,0.0,-999.0,98,-99.99,,,0.00,Acu-Link.com,2013-10-28 02:27:00,
2013-10-27 21:42:00,60.8,60.2,29.82,NE,45,0.0,-999.0,98,-99.99,,,0.01,Acu-Link.com,2013-10-28 02:42:00,
2013-10-27 21:57:00,60.6,60.0,29.82,NNE,22,2.2,-999.0,98,-99.99,,,0.03,Acu-Link.com,2013-10-28 02:57:00,
2013-10-27 22:12:00,60.6,60.0,29.82,WNW,292,0.0,-999.0,98,-99.99,,,0.03,Acu-Link.com,2013-10-28 03:12:00,
2013-10-27 22:27:00,60.6,60.0,29.83,NE,45,0.0,-999.0,98,-99.99,,,0.03,Acu-Link.com,2013-10-28 03:27:00,
2013-10-27 22:43:00,60.6,60.0,29.82,ESE,112,0.0,-999.0,98,-99.99,,,0.03,Acu-Link.com,2013-10-28 03:43:00,
2013-10-27 22:58:00,60.4,59.8,29.82,ESE,112,0.0,-999.0,98,-99.99,,,0.03,Acu-Link.com,2013-10-28 03:58:00,
2013-10-27 23:13:00,60.3,59.7,29.82,ENE,67,0.0,-999.0,98,-99.99,,,0.03,Acu-Link.com,2013-10-28 04:13:00,
2013-10-27 23:28:00,60.3,59.7,29.82,South,180,0.0,-999.0,98,-99.99,,,0.03,Acu-Link.com,2013-10-28 04:28:00,
2013-10-27 23:43:00,60.3,59.7,29.81,ESE,112,0.0,-999.0,98,-99.99,,,0.03,Acu-Link.com,2013-10-28 04:43:00,
2013-10-27 23:58:00,60.4,59.8,29.82,NNE,22,0.0,-999.0,98,-99.99,,,0.03,Acu-Link.com,2013-10-28 04:58:00,